createdAt,value
2018-05-14T00:00:31.032Z,20.32
2018-05-14T00:01:31.204Z,20.32
2018-05-14T00:02:31.369Z,20.47
2018-05-14T00:03:31.536Z,20.42
2018-05-14T00:04:31.707Z,20.41
2018-05-14T00:05:31.879Z,20.41
2018-05-14T00:06:32.043Z,20.54
2018-05-14T00:07:32.218Z,20.47
2018-05-14T00:08:32.381Z,20.41
2018-05-14T00:09:32.552Z,20.51
2018-05-14T00:10:32.719Z,20.33
2018-05-14T00:11:32.890Z,20.31
2018-05-14T00:12:33.062Z,20.14
2018-05-14T00:13:33.238Z,20.01
2018-05-14T00:14:33.411Z,20.08
2018-05-14T00:15:33.576Z,20.05
2018-05-14T00:16:33.768Z,20.03
2018-05-14T00:17:33.929Z,19.99
2018-05-14T00:18:34.105Z,20.08
2018-05-14T00:19:34.279Z,19.99
2018-05-14T00:20:34.446Z,20.10
2018-05-14T00:21:34.624Z,20.13
2018-05-14T00:22:34.789Z,20.06
2018-05-14T00:23:34.960Z,20.01
2018-05-14T00:24:35.130Z,19.95
2018-05-14T00:25:35.297Z,19.87
2018-05-14T00:26:35.473Z,19.94
2018-05-14T00:27:35.636Z,19.96
2018-05-14T00:28:35.807Z,19.95
2018-05-14T00:29:35.984Z,19.84
2018-05-14T00:30:36.164Z,19.71
2018-05-14T00:31:36.331Z,19.71
2018-05-14T00:32:36.507Z,19.73
2018-05-14T00:33:36.681Z,19.63
2018-05-14T00:34:36.848Z,19.63
2018-05-14T00:35:37.022Z,19.51
2018-05-14T00:36:37.186Z,19.50
2018-05-14T00:37:37.355Z,19.48
2018-05-14T00:38:37.523Z,19.51
2018-05-14T00:39:37.687Z,19.50
2018-05-14T00:40:37.865Z,19.51
2018-05-14T00:41:38.038Z,19.54
2018-05-14T00:42:38.204Z,19.56
2018-05-14T00:43:38.375Z,19.48
2018-05-14T00:44:38.625Z,19.50
2018-05-14T00:45:38.710Z,19.46
2018-05-14T00:46:38.877Z,19.61
2018-05-14T00:47:39.049Z,19.62
2018-05-14T00:48:39.212Z,19.66
2018-05-14T00:49:39.377Z,19.61
2018-05-14T00:50:39.551Z,19.62
2018-05-14T00:51:39.711Z,19.48
2018-05-14T00:52:39.880Z,19.65
2018-05-14T00:53:40.053Z,19.65
2018-05-14T00:54:40.226Z,19.59
2018-05-14T00:55:40.403Z,19.59
2018-05-14T00:56:40.578Z,19.55
2018-05-14T00:57:40.750Z,19.51
2018-05-14T00:58:40.919Z,19.51
2018-05-14T00:59:41.099Z,19.56
2018-05-14T01:00:41.270Z,19.44
2018-05-14T01:01:41.438Z,19.46
2018-05-14T01:02:41.607Z,19.32
2018-05-14T01:03:41.778Z,19.31
2018-05-14T01:04:41.945Z,19.29
2018-05-14T01:05:42.122Z,19.43
2018-05-14T01:06:42.282Z,19.40
2018-05-14T01:07:42.448Z,19.39
2018-05-14T01:08:42.631Z,19.31
2018-05-14T01:09:42.808Z,19.33
2018-05-14T01:10:42.975Z,19.28
2018-05-14T01:11:43.144Z,19.19
2018-05-14T01:12:43.314Z,19.06
2018-05-14T01:13:43.485Z,19.14
2018-05-14T01:14:43.654Z,19.14
2018-05-14T01:15:43.822Z,19.10
2018-05-14T01:16:43.990Z,19.18
2018-05-14T01:17:44.153Z,19.18
2018-05-14T01:18:44.321Z,19.22
2018-05-14T01:19:44.496Z,19.21
2018-05-14T01:20:44.665Z,19.13
2018-05-14T01:21:44.826Z,19.19
2018-05-14T01:22:44.998Z,19.19
2018-05-14T01:23:45.178Z,19.19
2018-05-14T01:24:45.352Z,19.13
2018-05-14T01:25:45.521Z,19.07
2018-05-14T01:26:45.766Z,19.06
2018-05-14T01:27:45.845Z,19.00
2018-05-14T01:28:46.018Z,18.95
2018-05-14T01:29:46.185Z,18.82
2018-05-14T01:30:46.354Z,18.73
2018-05-14T01:31:46.523Z,18.73
2018-05-14T01:32:46.688Z,18.76
2018-05-14T01:33:46.860Z,18.78
2018-05-14T01:34:47.032Z,18.81
2018-05-14T01:35:47.200Z,18.80
2018-05-14T01:36:47.370Z,18.82
2018-05-14T01:37:47.537Z,18.90
2018-05-14T01:38:47.711Z,18.84
2018-05-14T01:39:47.878Z,18.92
2018-05-14T01:40:48.047Z,18.85
2018-05-14T01:41:48.214Z,18.78
2018-05-14T01:42:48.399Z,18.70
2018-05-14T01:43:48.570Z,18.76
2018-05-14T01:44:48.737Z,18.80
2018-05-14T01:45:48.909Z,18.75
2018-05-14T01:46:49.075Z,18.81
2018-05-14T01:47:49.251Z,18.80
2018-05-14T01:48:49.416Z,18.81
2018-05-14T01:49:49.591Z,18.78
2018-05-14T01:50:49.756Z,18.84
2018-05-14T01:51:49.928Z,18.81
2018-05-14T01:52:50.102Z,18.81
2018-05-14T01:53:50.267Z,18.80
2018-05-14T01:54:50.440Z,18.78
2018-05-14T01:55:50.601Z,18.81
2018-05-14T01:56:50.767Z,18.84
2018-05-14T01:57:50.939Z,18.87
2018-05-14T01:58:51.103Z,18.78
2018-05-14T01:59:51.278Z,18.75
2018-05-14T02:00:51.450Z,18.81
2018-05-14T02:01:51.618Z,18.78
2018-05-14T02:02:51.777Z,18.78
2018-05-14T02:03:51.948Z,18.78
2018-05-14T02:04:52.123Z,18.69
2018-05-14T02:05:52.298Z,18.69
2018-05-14T02:06:52.533Z,18.70
2018-05-14T02:07:52.633Z,18.69
2018-05-14T02:08:52.801Z,18.69
2018-05-14T02:09:52.979Z,18.72
2018-05-14T02:10:53.145Z,18.67
2018-05-14T02:11:53.312Z,18.80
2018-05-14T02:12:53.481Z,18.80
2018-05-14T02:13:53.648Z,18.75
2018-05-14T02:14:53.820Z,18.67
2018-05-14T02:15:53.987Z,18.69
2018-05-14T02:16:54.157Z,18.76
2018-05-14T02:17:54.335Z,18.78
2018-05-14T02:18:54.506Z,18.73
2018-05-14T02:19:54.692Z,18.81
2018-05-14T02:20:54.857Z,18.66
2018-05-14T02:21:55.032Z,18.70
2018-05-14T02:22:55.203Z,18.69
2018-05-14T02:23:55.681Z,18.78
2018-05-14T02:24:55.702Z,18.70
2018-05-14T02:25:56.059Z,18.73
2018-05-14T02:26:56.342Z,18.70
2018-05-14T02:27:56.303Z,18.67
2018-05-14T02:28:56.647Z,18.72
2018-05-14T02:29:56.854Z,18.69
2018-05-14T02:30:57.051Z,18.75
2018-05-14T02:31:57.173Z,18.69
2018-05-14T02:32:57.321Z,18.63
2018-05-14T02:33:57.099Z,18.69
2018-05-14T02:34:57.268Z,18.73
2018-05-14T02:35:57.442Z,18.70
2018-05-14T02:36:57.613Z,18.75
2018-05-14T02:37:57.778Z,18.80
2018-05-14T02:38:57.942Z,18.81
2018-05-14T02:39:58.119Z,18.88
2018-05-14T02:40:58.289Z,18.84
2018-05-14T02:41:58.453Z,18.81
2018-05-14T02:42:58.621Z,18.87
2018-05-14T02:43:58.789Z,18.90
2018-05-14T02:44:58.970Z,18.99
2018-05-14T02:45:59.138Z,18.88
2018-05-14T02:46:59.308Z,18.94
2018-05-14T02:47:59.476Z,18.94
2018-05-14T02:48:59.646Z,18.90
2018-05-14T02:49:59.821Z,18.84
2018-05-14T02:51:00.069Z,18.87
2018-05-14T02:52:00.165Z,18.84
2018-05-14T02:53:00.321Z,18.80
2018-05-14T02:54:00.494Z,18.90
2018-05-14T02:55:00.669Z,18.87
2018-05-14T02:56:00.850Z,18.84
2018-05-14T02:57:01.015Z,18.80
2018-05-14T02:58:01.183Z,18.84
2018-05-14T02:59:01.348Z,18.87
2018-05-14T03:00:01.519Z,18.75
2018-05-14T03:01:01.694Z,18.62
2018-05-14T03:02:01.875Z,18.62
2018-05-14T03:03:02.036Z,18.78
2018-05-14T03:04:02.205Z,18.72
2018-05-14T03:05:02.401Z,18.75
2018-05-14T03:06:02.568Z,18.70
2018-05-14T03:07:02.738Z,18.65
2018-05-14T03:08:02.908Z,18.70
2018-05-14T03:09:03.083Z,18.67
2018-05-14T03:10:03.260Z,18.66
2018-05-14T03:11:03.422Z,18.72
2018-05-14T03:12:03.589Z,18.70
2018-05-14T03:13:03.755Z,18.78
2018-05-14T03:14:03.924Z,18.76
2018-05-14T03:15:04.097Z,18.78
2018-05-14T03:16:04.263Z,18.72
2018-05-14T03:17:04.432Z,18.73
2018-05-14T03:18:04.605Z,18.69
2018-05-14T03:19:04.774Z,18.72
2018-05-14T03:20:05.027Z,18.69
2018-05-14T03:21:05.118Z,18.73
2018-05-14T03:22:05.287Z,18.62
2018-05-14T03:23:05.454Z,18.60
2018-05-14T03:24:05.647Z,18.58
2018-05-14T03:25:06.339Z,18.55
2018-05-14T03:26:05.978Z,18.63
2018-05-14T03:27:06.153Z,18.60
2018-05-14T03:28:06.327Z,18.48
2018-05-14T03:29:06.492Z,18.51
2018-05-14T03:30:06.656Z,18.41
2018-05-14T03:31:06.840Z,18.60
2018-05-14T03:32:07.008Z,18.41
2018-05-14T03:33:07.267Z,18.52
2018-05-14T03:34:07.337Z,18.51
2018-05-14T03:35:07.508Z,18.50
2018-05-14T03:36:07.675Z,18.52
2018-05-14T03:37:07.848Z,18.51
2018-05-14T03:38:08.017Z,18.51
2018-05-14T03:39:08.189Z,18.47
2018-05-14T03:40:08.368Z,18.54
2018-05-14T03:41:08.521Z,18.65
2018-05-14T03:42:08.689Z,18.58
2018-05-14T03:43:08.859Z,18.58
2018-05-14T03:44:09.035Z,18.57
2018-05-14T03:45:09.198Z,18.63
2018-05-14T03:46:09.364Z,18.65
2018-05-14T03:47:09.611Z,18.65
2018-05-14T03:48:09.707Z,18.66
2018-05-14T03:49:09.874Z,18.75
2018-05-14T03:50:10.043Z,18.67
2018-05-14T03:51:10.214Z,18.72
2018-05-14T03:52:10.390Z,18.73
2018-05-14T03:53:10.556Z,18.72
2018-05-14T03:54:10.723Z,18.76
2018-05-14T03:55:10.892Z,18.73
2018-05-14T03:56:11.067Z,18.69
2018-05-14T03:57:11.235Z,18.75
2018-05-14T03:58:11.397Z,18.84
2018-05-14T03:59:11.568Z,18.82
2018-05-14T04:00:11.734Z,18.82
2018-05-14T04:01:11.909Z,18.94
2018-05-14T04:02:12.075Z,18.91
2018-05-14T04:03:12.239Z,19.02
2018-05-14T04:04:12.412Z,18.98
2018-05-14T04:05:12.583Z,18.88
2018-05-14T04:06:12.767Z,18.90
2018-05-14T04:07:12.938Z,18.92
2018-05-14T04:08:13.112Z,18.90
2018-05-14T04:09:13.268Z,18.95
2018-05-14T04:10:14.360Z,18.95
2018-05-14T04:11:13.604Z,19.04
2018-05-14T04:12:13.783Z,19.04
2018-05-14T04:13:13.982Z,19.06
2018-05-14T04:14:14.151Z,19.02
2018-05-14T04:15:14.311Z,19.18
2018-05-14T04:16:14.487Z,19.11
2018-05-14T04:17:14.649Z,19.04
2018-05-14T04:18:14.820Z,19.10
2018-05-14T04:19:14.991Z,19.25
2018-05-14T04:20:15.172Z,19.31
2018-05-14T04:21:15.339Z,19.29
2018-05-14T04:22:15.508Z,19.25
2018-05-14T04:23:15.674Z,19.36
2018-05-14T04:24:15.847Z,19.32
2018-05-14T04:25:16.011Z,19.48
2018-05-14T04:26:16.181Z,19.50
2018-05-14T04:27:16.345Z,19.43
2018-05-14T04:28:16.519Z,19.37
2018-05-14T04:29:16.684Z,19.51
2018-05-14T04:30:16.931Z,19.56
2018-05-14T04:31:17.030Z,19.46
2018-05-14T04:32:17.202Z,19.43
2018-05-14T04:33:17.372Z,19.44
2018-05-14T04:34:17.547Z,19.47
2018-05-14T04:35:17.720Z,19.48
2018-05-14T04:36:17.892Z,19.51
2018-05-14T04:37:18.066Z,19.54
2018-05-14T04:38:18.236Z,19.31
2018-05-14T04:39:18.413Z,19.48
2018-05-14T04:40:18.578Z,19.58
2018-05-14T04:41:18.747Z,19.55
2018-05-14T04:42:18.917Z,19.66
2018-05-14T04:43:19.094Z,19.59
2018-05-14T04:44:19.261Z,19.66
2018-05-14T04:45:19.431Z,19.71
2018-05-14T04:46:19.605Z,19.66
2018-05-14T04:47:19.772Z,19.80
2018-05-14T04:48:19.933Z,19.87
2018-05-14T04:49:20.107Z,19.99
2018-05-14T04:50:20.288Z,20.03
2018-05-14T04:51:20.456Z,20.01
2018-05-14T04:52:20.627Z,20.06
2018-05-14T04:53:20.799Z,20.01
2018-05-14T04:54:20.966Z,20.13
2018-05-14T04:55:21.144Z,20.21
2018-05-14T04:56:21.314Z,20.21
2018-05-14T04:57:21.491Z,20.26
2018-05-14T04:58:21.660Z,20.38
2018-05-14T04:59:21.949Z,20.42
2018-05-14T05:00:21.995Z,20.33
2018-05-14T05:01:22.176Z,20.35
2018-05-14T05:02:22.337Z,20.39
2018-05-14T05:03:22.507Z,20.47
2018-05-14T05:04:22.690Z,20.36
2018-05-14T05:05:22.857Z,20.51
2018-05-14T05:06:23.032Z,20.38
2018-05-14T05:07:23.199Z,20.39
2018-05-14T05:08:23.366Z,20.47
2018-05-14T05:09:23.536Z,20.54
2018-05-14T05:10:23.718Z,20.51
2018-05-14T05:11:23.932Z,20.55
2018-05-14T05:12:24.057Z,20.59
2018-05-14T05:13:24.224Z,20.72
2018-05-14T05:14:24.395Z,20.70
2018-05-14T05:15:24.570Z,20.84
2018-05-14T05:16:24.737Z,20.76
2018-05-14T05:17:24.908Z,20.77
2018-05-14T05:18:25.079Z,20.84
2018-05-14T05:19:25.257Z,20.84
2018-05-14T05:20:25.427Z,20.97
2018-05-14T05:21:25.602Z,20.95
2018-05-14T05:22:25.760Z,20.82
2018-05-14T05:23:25.935Z,20.84
2018-05-14T05:24:26.107Z,20.95
2018-05-14T05:25:26.278Z,20.97
2018-05-14T05:26:26.443Z,20.94
2018-05-14T05:27:26.608Z,21.04
2018-05-14T05:28:26.832Z,21.17
2018-05-14T05:29:26.940Z,21.24
2018-05-14T05:30:27.125Z,21.21
2018-05-14T05:31:27.305Z,21.31
2018-05-14T05:32:27.471Z,21.29
2018-05-14T05:33:27.640Z,21.31
2018-05-14T05:34:27.858Z,21.38
2018-05-14T05:35:27.981Z,21.31
2018-05-14T05:36:28.153Z,21.25
2018-05-14T05:37:28.329Z,21.29
2018-05-14T05:38:28.503Z,21.34
2018-05-14T05:39:28.673Z,21.37
2018-05-14T05:40:28.842Z,21.34
2018-05-14T05:41:29.015Z,21.29
2018-05-14T05:42:29.176Z,21.56
2018-05-14T05:43:29.346Z,21.50
2018-05-14T05:44:29.512Z,21.54
2018-05-14T05:45:29.692Z,21.62
2018-05-14T05:46:29.859Z,21.72
2018-05-14T05:47:30.034Z,21.86
2018-05-14T05:48:30.195Z,21.83
2018-05-14T05:49:30.368Z,21.90
2018-05-14T05:50:30.550Z,22.02
2018-05-14T05:51:30.723Z,22.10
2018-05-14T05:52:30.904Z,22.12
2018-05-14T05:53:31.072Z,22.17
2018-05-14T05:54:31.238Z,22.24
2018-05-14T05:55:31.406Z,22.43
2018-05-14T05:56:31.578Z,22.52
2018-05-14T05:57:31.755Z,22.62
2018-05-14T05:58:31.926Z,22.54
2018-05-14T05:59:32.098Z,22.60
2018-05-14T06:00:32.262Z,22.49
2018-05-14T06:01:32.437Z,22.61
2018-05-14T06:02:32.610Z,22.62
2018-05-14T06:03:32.784Z,22.79
2018-05-14T06:04:32.963Z,22.85
2018-05-14T06:05:33.135Z,22.90
2018-05-14T06:06:33.312Z,22.77
2018-05-14T06:07:33.480Z,22.75
2018-05-14T06:08:33.647Z,22.62
2018-05-14T06:09:33.838Z,22.62
2018-05-14T06:10:33.996Z,22.64
2018-05-14T06:11:34.172Z,22.58
2018-05-14T06:12:34.358Z,22.61
2018-05-14T06:13:34.505Z,22.70
2018-05-14T06:14:34.677Z,22.60
2018-05-14T06:15:34.887Z,22.75
2018-05-14T06:16:35.021Z,22.82
2018-05-14T06:17:35.196Z,22.79
2018-05-14T06:18:35.376Z,22.82
2018-05-14T06:19:35.543Z,22.73
2018-05-14T06:20:35.713Z,22.67
2018-05-14T06:21:35.887Z,22.68
2018-05-14T06:22:36.059Z,22.79
2018-05-14T06:23:36.230Z,22.76
2018-05-14T06:24:36.399Z,22.80
2018-05-14T06:25:36.570Z,22.83
2018-05-14T06:26:36.743Z,22.80
2018-05-14T06:27:36.914Z,22.88
2018-05-14T06:28:37.083Z,22.82
2018-05-14T06:29:37.274Z,22.83
2018-05-14T06:30:37.423Z,22.88
2018-05-14T06:31:37.593Z,22.83
2018-05-14T06:32:37.757Z,22.92
2018-05-14T06:33:37.930Z,22.83
2018-05-14T06:34:38.101Z,22.85
2018-05-14T06:35:38.304Z,22.92
2018-05-14T06:36:38.440Z,22.88
2018-05-14T06:37:38.620Z,22.82
2018-05-14T06:38:38.786Z,22.77
2018-05-14T06:39:38.967Z,22.70
2018-05-14T06:40:39.137Z,22.85
2018-05-14T06:41:39.299Z,22.90
2018-05-14T06:42:39.478Z,22.68
2018-05-14T06:43:39.650Z,22.75
2018-05-14T06:44:39.821Z,22.73
2018-05-14T06:45:39.998Z,22.68
2018-05-14T06:46:40.172Z,22.90
2018-05-14T06:47:40.331Z,23.05
2018-05-14T06:48:40.513Z,23.10
2018-05-14T06:49:40.694Z,23.10
2018-05-14T06:50:40.863Z,23.15
2018-05-14T06:51:41.024Z,23.12
2018-05-14T06:52:41.197Z,23.04
2018-05-14T06:53:41.359Z,23.35
2018-05-14T06:54:41.542Z,23.40
2018-05-14T06:55:41.711Z,23.57
2018-05-14T06:56:41.882Z,23.68
2018-05-14T06:57:42.061Z,23.58
2018-05-14T06:58:42.231Z,23.73
2018-05-14T06:59:42.411Z,23.85
2018-05-14T07:00:42.583Z,23.97
2018-05-14T07:01:42.750Z,24.05
2018-05-14T07:02:42.915Z,24.18
2018-05-14T07:03:43.090Z,24.20
2018-05-14T07:04:43.263Z,24.24
2018-05-14T07:05:43.457Z,24.20
2018-05-14T07:06:43.613Z,24.21
2018-05-14T07:07:43.808Z,24.15
2018-05-14T07:08:43.955Z,23.98
2018-05-14T07:09:44.125Z,23.97
2018-05-14T07:10:44.296Z,23.90
2018-05-14T07:11:44.472Z,23.88
2018-05-14T07:12:44.639Z,23.87
2018-05-14T07:13:44.814Z,23.78
2018-05-14T07:14:44.985Z,23.61
2018-05-14T07:15:45.160Z,23.48
2018-05-14T07:16:45.328Z,23.66
2018-05-14T07:17:45.504Z,23.54
2018-05-14T07:18:45.678Z,23.75
2018-05-14T07:19:45.846Z,23.80
2018-05-14T07:20:46.016Z,23.88
2018-05-14T07:21:46.188Z,24.06
2018-05-14T07:22:46.364Z,24.16
2018-05-14T07:23:46.530Z,24.34
2018-05-14T07:24:46.777Z,24.37
2018-05-14T07:25:46.876Z,24.35
2018-05-14T07:26:47.047Z,24.28
2018-05-14T07:27:47.222Z,23.98
2018-05-14T07:28:47.391Z,24.08
2018-05-14T07:29:47.562Z,24.15
2018-05-14T07:30:47.737Z,24.32
2018-05-14T07:31:47.913Z,24.45
2018-05-14T07:32:48.078Z,24.52
2018-05-14T07:33:48.254Z,24.77
2018-05-14T07:34:48.426Z,24.81
2018-05-14T07:35:48.598Z,24.83
2018-05-14T07:36:48.772Z,24.93
2018-05-14T07:37:48.942Z,24.95
2018-05-14T07:38:49.120Z,24.96
2018-05-14T07:39:49.305Z,25.13
2018-05-14T07:40:49.473Z,25.46
2018-05-14T07:41:49.651Z,25.45
2018-05-14T07:42:49.831Z,25.54
2018-05-14T07:43:50.100Z,25.64
2018-05-14T07:44:50.180Z,25.75
2018-05-14T07:45:50.356Z,25.85
2018-05-14T07:46:50.526Z,26.09
2018-05-14T07:47:50.698Z,26.13
2018-05-14T07:48:50.869Z,26.13
2018-05-14T07:49:51.047Z,26.06
2018-05-14T07:50:51.220Z,26.20
2018-05-14T07:51:51.392Z,26.28
2018-05-14T07:52:51.601Z,26.23
2018-05-14T07:53:51.750Z,26.39
2018-05-14T07:54:51.917Z,26.44
2018-05-14T07:55:52.095Z,26.47
2018-05-14T07:56:52.278Z,26.47
2018-05-14T07:57:52.455Z,26.44
2018-05-14T07:58:52.630Z,26.39
2018-05-14T07:59:52.802Z,26.39
2018-05-14T08:00:52.981Z,26.45
2018-05-14T08:01:53.145Z,26.60
2018-05-14T08:02:53.320Z,26.58
2018-05-14T08:03:53.494Z,26.73
2018-05-14T08:04:53.670Z,26.55
2018-05-14T08:05:53.842Z,26.73
2018-05-14T08:06:54.016Z,26.77
2018-05-14T08:07:54.209Z,26.87
2018-05-14T08:08:54.374Z,27.02
2018-05-14T08:09:54.547Z,27.04
2018-05-14T08:10:54.714Z,27.06
2018-05-14T08:11:54.890Z,26.92
2018-05-14T08:12:55.067Z,26.99
2018-05-14T08:13:55.247Z,27.04
2018-05-14T08:14:55.419Z,26.89
2018-05-14T08:15:55.599Z,26.91
2018-05-14T08:16:55.770Z,26.84
2018-05-14T08:17:55.946Z,27.04
2018-05-14T08:18:56.129Z,27.10
2018-05-14T08:19:56.299Z,26.95
2018-05-14T08:20:56.482Z,26.88
2018-05-14T08:21:56.921Z,27.13
2018-05-14T08:22:56.825Z,27.12
2018-05-14T08:23:57.001Z,27.25
2018-05-14T08:24:57.177Z,27.17
2018-05-14T08:25:57.355Z,27.27
2018-05-14T08:26:57.535Z,27.06
2018-05-14T08:27:57.711Z,27.25
2018-05-14T08:28:57.895Z,26.97
2018-05-14T08:29:58.072Z,27.09
2018-05-14T08:30:58.242Z,27.07
2018-05-14T08:31:58.421Z,27.13
2018-05-14T08:32:58.597Z,27.25
2018-05-14T08:33:58.768Z,27.21
2018-05-14T08:34:58.954Z,27.39
2018-05-14T08:35:59.125Z,27.47
2018-05-14T08:36:59.302Z,27.55
2018-05-14T08:37:59.476Z,27.65
2018-05-14T08:38:59.638Z,27.82
2018-05-14T08:39:59.832Z,27.90
2018-05-14T08:41:00.000Z,27.81
2018-05-14T08:42:00.180Z,27.79
2018-05-14T08:43:00.352Z,27.87
2018-05-14T08:44:00.531Z,27.85
2018-05-14T08:45:00.714Z,27.96
2018-05-14T08:46:00.884Z,27.93
2018-05-14T08:47:01.061Z,27.79
2018-05-14T08:48:01.281Z,27.84
2018-05-14T08:49:01.411Z,28.06
2018-05-14T08:50:01.590Z,28.29
2018-05-14T08:51:01.759Z,28.30
2018-05-14T08:52:01.990Z,28.61
2018-05-14T08:53:02.118Z,28.70
2018-05-14T08:54:02.914Z,28.88
2018-05-14T08:55:02.499Z,28.89
2018-05-14T08:56:02.679Z,29.08
2018-05-14T08:57:02.859Z,29.23
2018-05-14T08:58:03.040Z,29.36
2018-05-14T08:59:03.214Z,29.37
2018-05-14T09:00:03.401Z,29.55
2018-05-14T09:01:03.576Z,29.79
2018-05-14T09:02:03.760Z,29.89
2018-05-14T09:03:03.936Z,30.23
2018-05-14T09:04:04.106Z,30.84
2018-05-14T09:05:04.285Z,31.76
2018-05-14T09:06:04.461Z,32.77
2018-05-14T09:07:04.638Z,33.93
2018-05-14T09:08:04.850Z,35.02
2018-05-14T09:09:05.000Z,35.96
2018-05-14T09:10:05.174Z,36.64
2018-05-14T09:11:05.367Z,37.43
2018-05-14T09:12:05.540Z,37.94
2018-05-14T09:13:05.715Z,38.57
2018-05-14T09:14:05.897Z,39.03
2018-05-14T09:15:06.083Z,39.47
2018-05-14T09:16:06.263Z,39.48
2018-05-14T09:17:06.450Z,39.81
2018-05-14T09:18:06.631Z,39.96
2018-05-14T09:19:06.814Z,40.12
2018-05-14T09:20:06.994Z,40.35
2018-05-14T09:21:07.179Z,40.53
2018-05-14T09:22:07.361Z,40.82
2018-05-14T09:23:07.544Z,40.38
2018-05-14T09:24:07.727Z,40.23
2018-05-14T09:25:07.906Z,40.84
2018-05-14T09:26:08.096Z,40.87
2018-05-14T09:27:08.274Z,41.48
2018-05-14T09:28:08.453Z,41.57
2018-05-14T09:29:08.640Z,41.57
2018-05-14T09:30:08.817Z,41.94
2018-05-14T09:31:09.004Z,42.23
2018-05-14T09:32:09.194Z,42.70
2018-05-14T09:33:10.993Z,42.28
2018-05-14T09:34:09.551Z,42.55
2018-05-14T09:35:09.736Z,43.07
2018-05-14T09:36:09.934Z,42.78
2018-05-14T09:37:10.125Z,43.00
2018-05-14T09:38:10.300Z,43.19
2018-05-14T09:39:10.501Z,43.30
2018-05-14T09:40:10.690Z,42.64
2018-05-14T09:41:12.490Z,42.47
2018-05-14T09:42:11.050Z,42.68
2018-05-14T09:43:11.235Z,43.27
2018-05-14T09:44:11.425Z,43.61
2018-05-14T09:45:11.619Z,43.84
2018-05-14T09:46:11.800Z,43.87
2018-05-14T09:47:11.992Z,44.07
2018-05-14T09:48:12.195Z,44.22
2018-05-14T09:49:12.367Z,43.95
2018-05-14T09:50:12.564Z,43.46
2018-05-14T09:51:12.749Z,43.76
2018-05-14T09:52:12.944Z,44.10
2018-05-14T09:53:13.128Z,44.50
2018-05-14T09:54:13.315Z,44.40
2018-05-14T09:55:13.506Z,44.02
2018-05-14T09:56:13.700Z,44.36
2018-05-14T09:57:13.909Z,44.59
2018-05-14T09:58:14.084Z,44.83
2018-05-14T09:59:14.268Z,45.01
2018-05-14T10:00:14.457Z,44.66
2018-05-14T10:01:14.644Z,44.95
2018-05-14T10:02:14.836Z,45.29
2018-05-14T10:03:15.026Z,45.70
2018-05-14T10:04:16.001Z,45.88
2018-05-14T10:05:15.436Z,45.88
2018-05-14T10:06:15.628Z,45.98
2018-05-14T10:07:15.819Z,45.88
2018-05-14T10:08:16.012Z,46.16
2018-05-14T10:09:16.208Z,46.34
2018-05-14T10:10:16.398Z,45.69
2018-05-14T10:11:16.588Z,45.58
2018-05-14T10:12:16.778Z,45.86
2018-05-14T10:13:16.973Z,46.18
2018-05-14T10:14:17.168Z,46.53
2018-05-14T10:15:17.356Z,46.77
2018-05-14T10:16:17.552Z,46.52
2018-05-14T10:17:17.773Z,46.74
2018-05-14T10:18:33.440Z,46.39
2018-05-14T10:20:51.315Z,46.74
2018-05-14T10:21:51.504Z,47.09
2018-05-14T10:22:51.698Z,47.12
2018-05-14T10:23:51.888Z,47.05
2018-05-14T10:24:52.078Z,47.17
2018-05-14T10:25:52.297Z,46.35
2018-05-14T10:26:52.468Z,46.42
2018-05-14T10:27:52.667Z,46.18
2018-05-14T10:28:52.865Z,46.26
2018-05-14T10:29:53.056Z,45.74
2018-05-14T10:30:53.249Z,44.83
2018-05-14T10:31:53.541Z,45.53
2018-05-14T10:32:53.649Z,45.16
2018-05-14T10:33:53.833Z,45.58
2018-05-14T10:34:54.034Z,45.58
2018-05-14T10:35:54.232Z,45.08
2018-05-14T10:36:54.430Z,45.53
2018-05-14T10:37:54.635Z,45.66
2018-05-14T10:38:54.823Z,45.33
2018-05-14T10:39:55.017Z,45.13
2018-05-14T10:40:55.230Z,45.89
2018-05-14T10:41:55.431Z,44.85
2018-05-14T10:42:55.617Z,45.55
2018-05-14T10:43:55.821Z,44.92
2018-05-14T10:44:57.272Z,44.97
2018-05-14T10:45:56.206Z,45.29
2018-05-14T10:46:56.413Z,45.33
2018-05-14T10:47:56.595Z,45.26
2018-05-14T10:48:56.787Z,44.46
2018-05-14T10:49:56.990Z,44.83
2018-05-14T10:50:57.187Z,45.07
2018-05-14T10:51:57.376Z,44.64
2018-05-14T10:52:57.634Z,45.12
2018-05-14T10:53:57.766Z,45.58
2018-05-14T10:54:57.959Z,45.57
2018-05-14T10:55:58.163Z,45.95
2018-05-14T10:56:58.353Z,45.96
2018-05-14T10:57:58.544Z,45.70
2018-05-14T10:58:58.756Z,45.88
2018-05-14T10:59:58.941Z,45.96
2018-05-14T11:00:59.188Z,45.21
2018-05-14T11:01:59.357Z,44.71
2018-05-14T11:02:59.553Z,44.64
2018-05-14T11:03:59.757Z,44.79
2018-05-14T11:04:59.938Z,45.20
2018-05-14T11:06:00.844Z,45.74
2018-05-14T11:07:00.282Z,46.12
2018-05-14T11:08:00.471Z,46.14
2018-05-14T11:09:00.666Z,45.95
2018-05-14T11:10:00.875Z,46.34
2018-05-14T11:11:01.069Z,46.08
2018-05-14T11:12:01.282Z,46.99
2018-05-14T11:13:01.564Z,46.65
2018-05-14T11:14:01.639Z,47.12
2018-05-14T11:15:01.844Z,47.22
2018-05-14T11:16:02.038Z,46.86
2018-05-14T11:17:02.234Z,46.52
2018-05-14T11:18:02.436Z,45.99
2018-05-14T11:19:02.631Z,45.76
2018-05-14T11:20:02.943Z,45.40
2018-05-14T11:21:03.041Z,45.55
2018-05-14T11:22:03.234Z,45.60
2018-05-14T11:23:03.488Z,44.83
2018-05-14T11:24:03.715Z,45.36
2018-05-14T11:25:03.898Z,45.96
2018-05-14T11:26:04.163Z,46.26
2018-05-14T11:27:04.335Z,45.12
2018-05-14T11:28:04.535Z,45.57
2018-05-14T11:29:04.733Z,44.97
2018-05-14T11:30:04.931Z,44.71
2018-05-14T11:31:05.128Z,44.03
2018-05-14T11:32:05.337Z,44.24
2018-05-14T11:33:05.518Z,44.88
2018-05-14T11:34:05.771Z,45.26
2018-05-14T11:35:05.956Z,45.57
2018-05-14T11:36:06.251Z,46.12
2018-05-14T11:37:06.319Z,46.09
2018-05-14T11:38:06.513Z,46.08
2018-05-14T11:39:06.701Z,45.91
2018-05-14T11:40:06.997Z,46.30
2018-05-14T11:41:07.125Z,46.37
2018-05-14T11:42:08.254Z,45.50
2018-05-14T11:43:08.290Z,45.84
2018-05-14T11:44:07.675Z,45.47
2018-05-14T11:48:57.463Z,46.34
2018-05-14T11:49:57.599Z,45.45
2018-05-14T11:50:57.953Z,45.74
2018-05-14T11:51:58.009Z,45.64
2018-05-14T11:52:58.233Z,45.26
2018-05-14T11:53:58.860Z,45.04
2018-05-14T11:54:58.768Z,44.94
2018-05-14T11:55:58.747Z,44.67
2018-05-14T11:56:58.944Z,44.47
2018-05-14T11:57:59.151Z,44.97
2018-05-14T11:58:59.459Z,44.79
2018-05-14T11:59:59.559Z,44.00
2018-05-14T12:00:59.724Z,44.89
2018-05-14T12:01:59.934Z,45.26
2018-05-14T12:03:00.320Z,44.83
2018-05-14T12:04:00.316Z,44.02
2018-05-14T12:05:00.512Z,43.46
2018-05-14T12:06:00.679Z,43.69
2018-05-14T12:07:00.872Z,44.00
2018-05-14T12:08:01.080Z,44.48
2018-05-14T12:09:01.286Z,43.52
2018-05-14T12:10:01.509Z,43.69
2018-05-14T12:11:01.672Z,43.71
2018-05-14T12:12:01.899Z,43.68
2018-05-14T12:13:02.101Z,43.86
2018-05-14T12:14:02.272Z,43.57
2018-05-14T12:15:02.505Z,44.67
2018-05-14T12:16:02.669Z,44.28
2018-05-14T12:17:02.845Z,44.95
2018-05-14T12:18:03.138Z,45.98
2018-05-14T12:19:03.255Z,46.65
2018-05-14T12:20:03.482Z,47.31
2018-05-14T12:21:03.629Z,47.41
2018-05-14T12:22:03.833Z,47.24
2018-05-14T12:23:04.044Z,46.33
2018-05-14T12:24:04.221Z,46.08
2018-05-14T12:25:04.438Z,45.88
2018-05-14T12:26:04.629Z,45.67
2018-05-14T12:27:04.828Z,45.69
2018-05-14T12:28:05.057Z,45.35
2018-05-14T12:29:05.200Z,44.97
2018-05-14T12:30:05.413Z,45.04
2018-05-14T12:31:05.597Z,45.72
2018-05-14T12:32:05.853Z,46.35
2018-05-14T12:33:06.001Z,46.52
2018-05-14T12:34:06.196Z,45.85
2018-05-14T12:35:06.393Z,45.47
2018-05-14T12:36:06.721Z,44.88
2018-05-14T12:37:06.731Z,44.24
2018-05-14T12:38:06.926Z,43.46
2018-05-14T12:39:07.136Z,43.23
2018-05-14T12:40:07.331Z,42.99
2018-05-14T12:41:07.550Z,42.33
2018-05-14T12:42:07.751Z,41.96
2018-05-14T12:43:07.904Z,40.53
2018-05-14T12:44:08.107Z,39.82
2018-05-14T12:45:08.304Z,39.17
2018-05-14T12:46:08.833Z,38.91
2018-05-14T12:47:08.698Z,38.52
2018-05-14T12:48:08.886Z,38.23
2018-05-14T12:49:09.960Z,38.22
2018-05-14T12:50:09.312Z,37.93
2018-05-14T12:51:09.499Z,37.64
2018-05-14T12:52:09.693Z,37.60
2018-05-14T12:53:09.887Z,37.32
2018-05-14T12:54:10.246Z,37.03
2018-05-14T12:55:10.311Z,36.75
2018-05-14T12:56:10.499Z,37.09
2018-05-14T12:57:10.717Z,36.90
2018-05-14T12:58:10.903Z,36.08
2018-05-14T12:59:11.085Z,35.89
2018-05-14T13:00:11.271Z,35.78